Terminal Aerodrome Forecast
Issued by NWS Brownsville, TX

Home | Current Version | Previous Version | Text Only | Print | Product List | Glossary On
Versions: 1 2 3 4 5 6 7 8 9 10 11 12
690
FTUS44 KBRO 302338
TAFBRO
TAF
KBRO 302338Z 3100/3124 07012KT P6SM FEW050 SCT110 BKN200
     FM310200 05005KT P6SM FEW035
     FM310500 VRB03KT P6SM VCSH SCT025 BKN035
     FM311400 36009KT P6SM VCSH BKN025
     FM311900 06011G16KT P6SM VCSH BKN035=

USA.gov is the U.S. government's official web portal to all federal, state and local government web resources and services.